| time (UTC) | temp C | wind direction | speed KPH | gust KPH | rain 1hr cm | rain 24hr cm | rain mn cm | humidity % | barometer mb |
| 20260508132604 | 20 | 186 | 12.9 | 27.4 | 0.00 | 0.00 | 0.00 | 61 | 1001.2 |
| 20260508132437 | 20 | 136 | 12.9 | 24.1 | 0.00 | 0.00 | 0.00 | 60 | 1001.1 |
| 20260508131913 | 20 | 165 | 16.1 | 35.4 | 0.00 | 0.00 | 0.00 | 61 | 1001.3 |
| 20260508131102 | 20 | 182 | 19.3 | 35.4 | 0.00 | 0.00 | 0.00 | 60 | 1001.2 |
| 20260508130602 | 20 | 214 | 14.5 | 32.2 | 0.00 | 0.00 | 0.00 | 60 | 1001.3 |
| 20260508130056 | 20 | 213 | 9.7 | 24.1 | 0.00 | 0.00 | 0.00 | 62 | 1001.5 |
| 20260508125544 | 19 | 177 | 9.7 | 22.5 | 0.00 | 0.00 | 0.00 | 65 | 1001.5 |
| 20260508125032 | 18 | 119 | 9.7 | 22.5 | 0.00 | 0.00 | 0.00 | 68 | 1001.6 |
| 20260508124535 | 18 | 130 | 12.9 | 27.4 | 0.00 | 0.00 | 0.00 | 66 | 1001.7 |
| 20260508124032 | 18 | 155 | 14.5 | 27.4 | 0.00 | 0.00 | 0.00 | 68 | 1001.8 |
| 20260508123533 | 18 | 192 | 16.1 | 27.4 | 0.00 | 0.00 | 0.00 | 67 | 1001.9 |
| 20260508123031 | 18 | 177 | 16.1 | 27.4 | 0.00 | 0.00 | 0.00 | 65 | 1001.9 |
| 20260508122533 | 18 | 171 | 19.3 | 35.4 | 0.00 | 0.00 | 0.00 | 64 | 1001.9 |
| 20260508122033 | 18 | 173 | 19.3 | 35.4 | 0.00 | 0.00 | 0.00 | 64 | 1001.9 |
| 20260508121532 | 18 | 157 | 16.1 | 30.6 | 0.00 | 0.00 | 0.00 | 63 | 1002.0 |
| 20260508121034 | 18 | 172 | 16.1 | 30.6 | 0.00 | 0.00 | 0.00 | 65 | 1002.2 |
| 20260508120531 | 18 | 180 | 14.5 | 30.6 | 0.00 | 0.00 | 0.00 | 64 | 1002.3 |
| 20260508120030 | 18 | 171 | 11.3 | 25.7 | 0.00 | 0.00 | 0.00 | 66 | 1002.3 |
| 20260508115838 | 18 | 200 | 14.5 | 27.4 | 0.00 | 0.00 | 0.00 | 65 | 1002.4 |
| 20260508115220 | 18 | 119 | 20.9 | 38.6 | 0.00 | 0.00 | 0.00 | 65 | 1002.3 |
| 20260508115129 | 18 | 153 | 16.1 | 29.0 | 0.00 | 0.00 | 0.00 | 67 | 1002.4 |
| 20260508114031 | 18 | 211 | 20.9 | 38.6 | 0.00 | 0.00 | 0.00 | 62 | 1002.5 |
| 20260508113532 | 18 | 188 | 17.7 | 35.4 | 0.00 | 0.00 | 0.00 | 61 | 1002.4 |
| 20260508113028 | 18 | 211 | 17.7 | 30.6 | 0.00 | 0.00 | 0.00 | 61 | 1002.4 |
| 20260508112531 | 18 | 215 | 22.5 | 37.0 | 0.00 | 0.00 | 0.00 | 61 | 1002.4 |
| 20260508112020 | 18 | 198 | 20.9 | 37.0 | 0.00 | 0.00 | 0.00 | 61 | 1002.5 |
| 20260508111521 | 18 | 190 | 17.7 | 32.2 | 0.00 | 0.00 | 0.00 | 63 | 1002.6 |
| 20260508111020 | 18 | 200 | 17.7 | 33.8 | 0.00 | 0.00 | 0.00 | 63 | 1002.7 |
| 20260508110521 | 17 | 182 | 17.7 | 33.8 | 0.00 | 0.00 | 0.00 | 65 | 1002.7 |
| 20260508110021 | 17 | 184 | 20.9 | 40.2 | 0.00 | 0.00 | 0.00 | 64 | 1002.7 |
| 20260508105846 | 18 | 200 | 19.3 | 40.2 | 0.00 | 0.00 | 0.00 | 64 | 1002.9 |
| 20260508105021 | 18 | 224 | 17.7 | 30.6 | 0.00 | 0.00 | 0.00 | 68 | 1002.8 |
| 20260508104521 | 17 | 192 | 19.3 | 30.6 | 0.00 | 0.00 | 0.00 | 66 | 1002.9 |
| 20260508104022 | 17 | 215 | 20.9 | 29.0 | 0.00 | 0.00 | 0.00 | 66 | 1002.9 |
| 20260508103834 | 17 | 238 | 19.3 | 35.4 | 0.00 | 0.00 | 0.00 | 66 | 1002.9 |
| 20260508103017 | 17 | 221 | 16.1 | 35.4 | 0.00 | 0.00 | 0.00 | 67 | 1002.9 |
| 20260508102517 | 17 | 205 | 16.1 | 29.0 | 0.00 | 0.00 | 0.00 | 67 | 1002.9 |
| 20260508102018 | 17 | 202 | 16.1 | 29.0 | 0.00 | 0.00 | 0.00 | 68 | 1003.0 |
| 20260508101517 | 17 | 168 | 14.5 | 27.4 | 0.00 | 0.00 | 0.00 | 66 | 1003.0 |
| 20260508101345 | 17 | 172 | 14.5 | 27.4 | 0.00 | 0.00 | 0.00 | 68 | 1003.1 |
| 20260508100517 | 17 | 192 | 14.5 | 24.1 | 0.00 | 0.00 | 0.00 | 69 | 1003.0 |
| 20260508100333 | 17 | 180 | 14.5 | 27.4 | 0.00 | 0.00 | 0.00 | 69 | 1003.0 |
| 20260508100004 | 17 | 213 | 14.5 | 24.1 | 0.00 | 0.00 | 0.00 | 72 | 1003.0 |
| 20260508095959 | 17 | 175 | 14.5 | 27.4 | 0.00 | 0.00 | 0.00 | 68 | 1003.0 |
| 20260508094509 | 16 | 190 | 17.7 | 32.2 | 0.00 | 0.00 | 0.00 | 70 | 1003.2 |
| 20260508094009 | 17 | 178 | 12.9 | 32.2 | 0.00 | 0.00 | 0.00 | 70 | 1003.2 |
| 20260508093509 | 16 | 153 | 12.9 | 22.5 | 0.00 | 0.00 | 0.00 | 71 | 1003.1 |
| 20260508093009 | 16 | 207 | 19.3 | 30.6 | 0.00 | 0.00 | 0.00 | 71 | 1003.2 |
| 20260508092510 | 16 | 191 | 20.9 | 32.2 | 0.00 | 0.00 | 0.00 | 70 | 1003.3 |
| 20260508092008 | 16 | 194 | 16.1 | 32.2 | 0.00 | 0.00 | 0.00 | 71 | 1003.3 |
| 20260508091509 | 16 | 191 | 12.9 | 27.4 | 0.00 | 0.00 | 0.00 | 71 | 1003.4 |
| 20260508091015 | 16 | 211 | 12.9 | 30.6 | 0.00 | 0.00 | 0.00 | 74 | 1003.3 |
| 20260508090823 | 16 | 186 | 12.9 | 30.6 | 0.00 | 0.00 | 0.00 | 73 | 1003.3 |
| 20260508090010 | 16 | 138 | 12.9 | 24.1 | 0.00 | 0.00 | 0.00 | 73 | 1003.3 |
| 20260508085510 | 16 | 207 | 12.9 | 24.1 | 0.00 | 0.00 | 0.00 | 74 | 1003.3 |
| 20260508085009 | 16 | 211 | 9.7 | 19.3 | 0.00 | 0.00 | 0.00 | 74 | 1003.3 |
| 20260508084509 | 15 | 139 | 11.3 | 17.7 | 0.00 | 0.00 | 0.00 | 75 | 1003.3 |
| 20260508084141 | 15 | 207 | 9.7 | 20.9 | 0.00 | 0.00 | 0.00 | 76 | 1003.3 |
| 20260508084110 | 15 | 182 | 11.3 | 19.3 | 0.00 | 0.00 | 0.00 | 76 | 1003.3 |
| 20260508083010 | 15 | 156 | 8.0 | 20.9 | 0.00 | 0.00 | 0.00 | 77 | 1003.3 |
| 20260508082506 | 15 | 190 | 6.4 | 16.1 | 0.00 | 0.00 | 0.00 | 78 | 1003.3 |
| 20260508082006 | 15 | 194 | 9.7 | 17.7 | 0.00 | 0.00 | 0.00 | 79 | 1003.3 |
| 20260508081505 | 14 | 180 | 11.3 | 17.7 | 0.00 | 0.00 | 0.00 | 78 | 1003.3 |
| 20260508081309 | 14 | 206 | 9.7 | 16.1 | 0.00 | 0.00 | 0.00 | 79 | 1003.3 |
| 20260508080505 | 14 | 175 | 11.3 | 25.7 | 0.00 | 0.00 | 0.00 | 79 | 1003.3 |
| 20260508080006 | 14 | 203 | 12.9 | 25.7 | 0.00 | 0.00 | 0.00 | 81 | 1003.3 |
| 20260508075807 | 14 | 209 | 8.0 | 19.3 | 0.00 | 0.00 | 0.00 | 82 | 1003.3 |
| 20260508075011 | 13 | 197 | 4.8 | 14.5 | 0.00 | 0.00 | 0.00 | 84 | 1003.4 |
| 20260508074504 | 13 | 192 | 6.4 | 12.9 | 0.00 | 0.00 | 0.00 | 84 | 1003.3 |
| 20260508074006 | 13 | 184 | 8.0 | 16.1 | 0.00 | 0.00 | 0.00 | 84 | 1003.3 |
| 20260508073506 | 13 | 189 | 6.4 | 16.1 | 0.00 | 0.00 | 0.00 | 84 | 1003.3 |
| 20260508073006 | 13 | 195 | 6.4 | 12.9 | 0.00 | 0.00 | 0.00 | 84 | 1003.3 |
| 20260508072505 | 13 | 180 | 4.8 | 12.9 | 0.00 | 0.00 | 0.00 | 84 | 1003.2 |
| 20260508072005 | 13 | 172 | 4.8 | 12.9 | 0.00 | 0.00 | 0.00 | 84 | 1003.2 |
| 20260508071505 | 13 | 197 | 4.8 | 12.9 | 0.00 | 0.00 | 0.00 | 84 | 1003.2 |
| 20260508071231 | 13 | 170 | 6.4 | 11.3 | 0.00 | 0.00 | 0.00 | 85 | 1003.1 |
| 20260508070505 | 13 | 180 | 6.4 | 11.3 | 0.00 | 0.00 | 0.00 | 85 | 1003.1 |
| 20260508070005 | 13 | 159 | 6.4 | 11.3 | 0.00 | 0.00 | 0.00 | 85 | 1003.0 |
| 20260508065504 | 13 | 168 | 6.4 | 11.3 | 0.00 | 0.00 | 0.00 | 85 | 1003.0 |
| 20260508065002 | 13 | 187 | 6.4 | 12.9 | 0.00 | 0.00 | 0.00 | 85 | 1002.9 |
| 20260508064503 | 12 | 180 | 6.4 | 12.9 | 0.00 | 0.00 | 0.00 | 85 | 1003.0 |
| 20260508064002 | 12 | 192 | 6.4 | 11.3 | 0.00 | 0.00 | 0.00 | 86 | 1002.9 |
| 20260508063501 | 12 | 178 | 6.4 | 11.3 | 0.00 | 0.00 | 0.00 | 86 | 1003.0 |
| 20260508063001 | 12 | 178 | 4.8 | 11.3 | 0.00 | 0.00 | 0.00 | 86 | 1002.9 |
| 20260508062502 | 12 | 182 | 1.6 | 8.0 | 0.00 | 0.00 | 0.00 | 87 | 1002.9 |
| 20260508062002 | 12 | 184 | 1.6 | 6.4 | 0.00 | 0.00 | 0.00 | 87 | 1002.9 |
| 20260508061501 | 12 | 194 | 1.6 | 6.4 | 0.00 | 0.00 | 0.00 | 87 | 1002.9 |
| 20260508061003 | 12 | 194 | 1.6 | 4.8 | 0.00 | 0.00 | 0.00 | 87 | 1002.9 |
| 20260508060502 | 12 | 192 | 1.6 | 6.4 | 0.00 | 0.00 | 0.00 | 87 | 1002.7 |
| 20260508060305 | 12 | 192 | 3.2 | 8.0 | 0.00 | 0.00 | 0.00 | 87 | 1002.7 |
| 20260508055504 | 12 | 192 | 3.2 | 8.0 | 0.00 | 0.00 | 0.00 | 87 | 1002.7 |
| 20260508055003 | 12 | 191 | 4.8 | 8.0 | 0.00 | 0.00 | 0.00 | 87 | 1002.7 |
| 20260508054501 | 12 | 191 | 4.8 | 8.0 | 0.00 | 0.00 | 0.00 | 87 | 1002.7 |
| 20260508054001 | 12 | 181 | 3.2 | 8.0 | 0.00 | 0.00 | 0.00 | 86 | 1002.5 |
| 20260508053503 | 12 | 184 | 1.6 | 6.4 | 0.00 | 0.00 | 0.00 | 86 | 1002.5 |
| 20260508052956 | 12 | 192 | 0.0 | 3.2 | 0.00 | 0.00 | 0.00 | 86 | 1002.4 |
| 20260508052751 | 12 | 194 | 1.6 | 4.8 | 0.00 | 0.00 | 0.00 | 86 | 1002.4 |
| 20260508052300 | 12 | 208 | 3.2 | 6.4 | 0.00 | 0.00 | 0.00 | 85 | 1002.4 |
| 20260508051445 | 12 | 209 | 4.8 | 14.5 | 0.00 | 0.00 | 0.00 | 85 | 1002.4 |
| 20260508051304 | 12 | 205 | 8.0 | 14.5 | 0.00 | 0.00 | 0.00 | 84 | 1002.3 |
| 20260508050446 | 12 | 190 | 6.4 | 12.9 | 0.00 | 0.00 | 0.00 | 84 | 1002.3 |
| 20260508050302 | 12 | 174 | 6.4 | 11.3 | 0.00 | 0.00 | 0.00 | 84 | 1002.2 |
| 20260508045447 | 12 | 185 | 8.0 | 16.1 | 0.00 | 0.00 | 0.00 | 83 | 1002.1 |
| 20260508044945 | 12 | 194 | 9.7 | 16.1 | 0.00 | 0.00 | 0.00 | 83 | 1002.2 |
| 20260508044447 | 12 | 185 | 9.7 | 16.1 | 0.00 | 0.00 | 0.00 | 84 | 1002.2 |
| 20260508043940 | 12 | 201 | 6.4 | 16.1 | 0.00 | 0.00 | 0.00 | 84 | 1002.3 |
| 20260508043434 | 12 | 236 | 1.6 | 11.3 | 0.00 | 0.00 | 0.00 | 83 | 1002.3 |
| 20260508043249 | 12 | 175 | 0.0 | 3.2 | 0.00 | 0.00 | 0.00 | 83 | 1002.2 |
| 20260508042434 | 12 | 177 | 0.0 | 3.2 | 0.00 | 0.00 | 0.00 | 83 | 1002.2 |
| 20260508042250 | 12 | 190 | 0.0 | 3.2 | 0.00 | 0.00 | 0.00 | 84 | 1002.2 |
| 20260508041434 | 12 | 192 | 0.0 | 3.2 | 0.00 | 0.00 | 0.00 | 84 | 1002.3 |
| 20260508040935 | 12 | 192 | 1.6 | 3.2 | 0.00 | 0.00 | 0.00 | 84 | 1002.3 |
| 20260508040434 | 12 | 192 | 0.0 | 3.2 | 0.00 | 0.00 | 0.00 | 84 | 1002.2 |
| 20260508035933 | 12 | 192 | 0.0 | 1.6 | 0.00 | 0.00 | 0.00 | 84 | 1002.3 |
| 20260508035432 | 12 | 192 | 0.0 | 3.2 | 0.00 | 0.00 | 0.00 | 84 | 1002.4 |
| 20260508034924 | 12 | 192 | 0.0 | 3.2 | 0.00 | 0.00 | 0.00 | 84 | 1002.4 |
| 20260508034413 | 12 | 192 | 0.0 | 0.0 | 0.00 | 0.00 | 0.00 | 84 | 1002.4 |
| 20260508033914 | 12 | 192 | 0.0 | 0.0 | 0.00 | 0.00 | 0.00 | 84 | 1002.3 |
| 20260508033412 | 12 | 192 | 0.0 | 0.0 | 0.00 | 0.00 | 0.00 | 84 | 1002.3 |
| 20260508032914 | 12 | 192 | 0.0 | 0.0 | 0.00 | 0.00 | 0.00 | 84 | 1002.3 |
| 20260508032413 | 12 | 192 | 0.0 | 0.0 | 0.00 | 0.00 | 0.00 | 84 | 1002.3 |
| 20260508031913 | 12 | 192 | 0.0 | 0.0 | 0.00 | 0.00 | 0.00 | 84 | 1002.3 |
| 20260508031413 | 12 | 192 | 0.0 | 0.0 | 0.00 | 0.00 | 0.00 | 84 | 1002.4 |
| 20260508030914 | 12 | 192 | 0.0 | 1.6 | 0.00 | 0.00 | 0.00 | 84 | 1002.3 |
| 20260508030414 | 12 | 193 | 0.0 | 1.6 | 0.00 | 0.00 | 0.00 | 84 | 1002.3 |
| 20260508025909 | 12 | 194 | 0.0 | 0.0 | 0.00 | 0.00 | 0.00 | 83 | 1002.4 |
| 20260508025525 | 12 | 194 | 0.0 | 3.2 | 0.00 | 0.00 | 0.00 | 84 | 1002.6 |
| 20260508025459 | 12 | 194 | 0.0 | 1.6 | 0.00 | 0.00 | 0.00 | 83 | 1002.6 |
| 20260508024410 | 12 | 194 | 1.6 | 3.2 | 0.00 | 0.00 | 0.00 | 84 | 1002.6 |
| 20260508023911 | 12 | 194 | 1.6 | 3.2 | 0.00 | 0.00 | 0.00 | 84 | 1002.6 |
| 20260508023410 | 12 | 195 | 0.0 | 4.8 | 0.00 | 0.00 | 0.00 | 84 | 1002.7 |
| 20260508022911 | 12 | 195 | 0.0 | 4.8 | 0.00 | 0.00 | 0.00 | 84 | 1002.7 |
| 20260508022716 | 12 | 196 | 0.0 | 0.0 | 0.00 | 0.00 | 0.00 | 84 | 1002.7 |
| 20260508022222 | 12 | 196 | 0.0 | 0.0 | 0.00 | 0.00 | 0.00 | 85 | 1002.7 |
| 20260508021404 | 12 | 196 | 0.0 | 0.0 | 0.00 | 0.00 | 0.00 | 84 | 1002.7 |
| 20260508021211 | 12 | 196 | 0.0 | 0.0 | 0.00 | 0.00 | 0.00 | 84 | 1002.8 |
| 20260508020403 | 12 | 196 | 0.0 | 0.0 | 0.00 | 0.00 | 0.00 | 84 | 1002.8 |
| 20260508015901 | 12 | 196 | 0.0 | 0.0 | 0.00 | 0.00 | 0.00 | 84 | 1002.9 |
| 20260508015401 | 12 | 196 | 0.0 | 0.0 | 0.00 | 0.00 | 0.00 | 84 | 1003.0 |
| 20260508015216 | 12 | 196 | 0.0 | 0.0 | 0.00 | 0.00 | 0.00 | 84 | 1003.1 |
| 20260508014403 | 12 | 196 | 0.0 | 0.0 | 0.00 | 0.00 | 0.00 | 84 | 1003.0 |
| 20260508013902 | 12 | 196 | 0.0 | 0.0 | 0.00 | 0.00 | 0.00 | 83 | 1003.0 |
| 20260508013402 | 12 | 196 | 0.0 | 0.0 | 0.00 | 0.00 | 0.00 | 83 | 1003.0 |
| 20260508012903 | 12 | 196 | 0.0 | 1.6 | 0.00 | 0.00 | 0.00 | 83 | 1003.2 |
| 20260508012710 | 12 | 196 | 0.0 | 1.6 | 0.00 | 0.00 | 0.00 | 84 | 1003.2 |
| 20260508012222 | 12 | 196 | 0.0 | 1.6 | 0.00 | 0.00 | 0.00 | 84 | 1003.3 |
| 20260508011401 | 12 | 196 | 0.0 | 0.0 | 0.00 | 0.00 | 0.00 | 84 | 1003.4 |
| 20260508010904 | 12 | 196 | 0.0 | 0.0 | 0.00 | 0.00 | 0.00 | 83 | 1003.6 |
| 20260508010403 | 13 | 196 | 0.0 | 3.2 | 0.00 | 0.00 | 0.00 | 83 | 1003.6 |
| 20260508010209 | 13 | 196 | 0.0 | 3.2 | 0.00 | 0.00 | 0.00 | 82 | 1003.4 |
| 20260508005401 | 13 | 204 | 0.0 | 0.0 | 0.00 | 0.00 | 0.00 | 82 | 1003.6 |
| 20260508004903 | 13 | 204 | 0.0 | 0.0 | 0.00 | 0.00 | 0.00 | 82 | 1003.7 |
| 20260508004402 | 13 | 207 | 0.0 | 0.0 | 0.00 | 0.00 | 0.00 | 82 | 1003.7 |
| 20260508003902 | 13 | 207 | 0.0 | 0.0 | 0.00 | 0.00 | 0.00 | 82 | 1003.7 |
| 20260508003400 | 13 | 207 | 0.0 | 0.0 | 0.00 | 0.00 | 0.00 | 82 | 1003.7 |
| 20260508002900 | 13 | 207 | 0.0 | 0.0 | 0.00 | 0.00 | 0.00 | 82 | 1003.6 |
| 20260508002400 | 13 | 207 | 0.0 | 0.0 | 0.00 | 0.00 | 0.00 | 82 | 1003.6 |
| 20260508002219 | 13 | 207 | 0.0 | 0.0 | 0.00 | 0.00 | 0.00 | 82 | 1003.6 |
| 20260508001400 | 13 | 207 | 0.0 | 0.0 | 0.00 | 0.00 | 0.00 | 81 | 1003.5 |
| 20260508000901 | 13 | 207 | 0.0 | 0.0 | 0.00 | 0.00 | 0.00 | 81 | 1003.6 |
| 20260508000409 | 13 | 207 | 0.0 | 1.6 | 0.00 | 0.00 | 0.00 | 81 | 1003.5 |
| 20260508000209 | 13 | 207 | 0.0 | 1.6 | 0.00 | 0.00 | 0.00 | 81 | 1003.6 |
| 20260507235401 | 13 | 207 | 1.6 | 4.8 | 0.00 | 0.00 | 0.00 | 81 | 1003.5 |
| 20260507234900 | 13 | 207 | 3.2 | 4.8 | 0.00 | 0.00 | 0.00 | 81 | 1003.8 |
| 20260507234408 | 13 | 211 | 3.2 | 4.8 | 0.00 | 0.00 | 0.00 | 81 | 1003.9 |
| 20260507233901 | 13 | 294 | 3.2 | 4.8 | 0.00 | 0.00 | 0.00 | 81 | 1003.8 |
| 20260507233401 | 13 | 313 | 1.6 | 4.8 | 0.00 | 0.00 | 0.00 | 81 | 1003.8 |
| 20260507233207 | 13 | 319 | 0.0 | 1.6 | 0.00 | 0.00 | 0.00 | 80 | 1003.8 |
| 20260507232402 | 13 | 319 | 0.0 | 1.6 | 0.00 | 0.00 | 0.00 | 80 | 1003.9 |
| 20260507231900 | 13 | 319 | 0.0 | 1.6 | 0.00 | 0.00 | 0.00 | 80 | 1003.9 |
| 20260507231403 | 13 | 319 | 0.0 | 0.0 | 0.00 | 0.00 | 0.00 | 79 | 1003.8 |
| 20260507230849 | 13 | 319 | 0.0 | 0.0 | 0.00 | 0.00 | 0.00 | 79 | 1003.7 |
| 20260507230351 | 13 | 319 | 0.0 | 3.2 | 0.00 | 0.00 | 0.00 | 79 | 1004.0 |
| 20260507225848 | 13 | 319 | 0.0 | 3.2 | 0.00 | 0.00 | 0.00 | 78 | 1004.0 |
| 20260507225349 | 14 | 321 | 0.0 | 1.6 | 0.00 | 0.00 | 0.00 | 77 | 1003.9 |
| 20260507225211 | 14 | 321 | 0.0 | 1.6 | 0.00 | 0.00 | 0.00 | 77 | 1003.8 |
| 20260507224347 | 14 | 321 | 0.0 | 0.0 | 0.00 | 0.00 | 0.00 | 77 | 1003.8 |
| 20260507224139 | 14 | 321 | 0.0 | 0.0 | 0.00 | 0.00 | 0.00 | 77 | 1004.0 |
| 20260507223459 | 14 | 321 | 1.6 | 4.8 | 0.00 | 0.00 | 0.00 | 77 | 1004.1 |
| 20260507223435 | 14 | 321 | 0.0 | 0.0 | 0.00 | 0.00 | 0.00 | 77 | 1004.0 |
| 20260507222335 | 14 | 321 | 1.6 | 6.4 | 0.00 | 0.00 | 0.00 | 77 | 1004.2 |
| 20260507221834 | 14 | 321 | 1.6 | 6.4 | 0.00 | 0.00 | 0.00 | 77 | 1004.2 |
| 20260507221341 | 14 | 321 | 1.6 | 3.2 | 0.00 | 0.00 | 0.00 | 77 | 1004.2 |
| 20260507221141 | 14 | 316 | 1.6 | 4.8 | 0.00 | 0.00 | 0.00 | 76 | 1004.5 |
| 20260507220640 | 14 | 316 | 1.6 | 4.8 | 0.00 | 0.00 | 0.00 | 76 | 1004.5 |
| 20260507215832 | 14 | 316 | 3.2 | 8.0 | 0.00 | 0.00 | 0.00 | 76 | 1004.5 |
| 20260507215332 | 14 | 325 | 4.8 | 8.0 | 0.00 | 0.00 | 0.00 | 76 | 1004.4 |
| 20260507214829 | 14 | 317 | 4.8 | 8.0 | 0.00 | 0.00 | 0.00 | 76 | 1004.4 |
| 20260507214634 | 14 | 296 | 4.8 | 8.0 | 0.00 | 0.00 | 0.00 | 76 | 1004.6 |
| 20260507213829 | 14 | 263 | 4.8 | 8.0 | 0.00 | 0.00 | 0.00 | 76 | 1004.8 |
| 20260507213330 | 14 | 288 | 3.2 | 8.0 | 0.00 | 0.00 | 0.00 | 75 | 1004.8 |
| 20260507212829 | 14 | 289 | 3.2 | 11.3 | 0.00 | 0.00 | 0.00 | 75 | 1004.9 |
| 20260507212645 | 14 | 284 | 4.8 | 11.3 | 0.00 | 0.00 | 0.00 | 75 | 1004.9 |
| 20260507211829 | 14 | 265 | 4.8 | 11.3 | 0.00 | 0.00 | 0.00 | 75 | 1005.0 |
| 20260507211630 | 14 | 263 | 6.4 | 11.3 | 0.00 | 0.00 | 0.00 | 75 | 1005.0 |
| 20260507210829 | 14 | 280 | 6.4 | 11.3 | 0.00 | 0.00 | 0.00 | 75 | 1004.9 |
| 20260507210331 | 14 | 278 | 6.4 | 11.3 | 0.00 | 0.00 | 0.00 | 75 | 1004.8 |
| 20260507210146 | 14 | 281 | 6.4 | 11.3 | 0.00 | 0.00 | 0.00 | 75 | 1004.8 |
| 20260507205331 | 14 | 272 | 6.4 | 14.5 | 0.00 | 0.00 | 0.00 | 75 | 1004.8 |
| 20260507204830 | 14 | 281 | 6.4 | 14.5 | 0.00 | 0.00 | 0.00 | 75 | 1004.8 |
| 20260507204639 | 14 | 285 | 4.8 | 12.9 | 0.00 | 0.00 | 0.00 | 75 | 1004.8 |
| 20260507203832 | 14 | 284 | 4.8 | 12.9 | 0.00 | 0.00 | 0.00 | 75 | 1004.7 |
| 20260507203553 | 14 | 292 | 6.4 | 12.9 | 0.00 | 0.00 | 0.00 | 75 | 1004.7 |
| 20260507202827 | 14 | 274 | 8.0 | 14.5 | 0.00 | 0.00 | 0.00 | 76 | 1004.6 |
| 20260507202322 | 14 | 279 | 8.0 | 16.1 | 0.00 | 0.00 | 0.00 | 76 | 1004.6 |
| 20260507202154 | 14 | 258 | 9.7 | 16.1 | 0.00 | 0.00 | 0.00 | 76 | 1004.6 |
| 20260507201309 | 14 | 275 | 9.7 | 16.1 | 0.00 | 0.00 | 0.00 | 76 | 1004.5 |
| 20260507200809 | 14 | 275 | 8.0 | 16.1 | 0.00 | 0.00 | 0.00 | 76 | 1004.4 |
| 20260507200618 | 14 | 281 | 6.4 | 12.9 | 0.00 | 0.00 | 0.00 | 76 | 1004.5 |
| 20260507195807 | 14 | 281 | 6.4 | 11.3 | 0.00 | 0.00 | 0.00 | 76 | 1004.4 |
| 20260507195307 | 15 | 267 | 8.0 | 16.1 | 0.00 | 0.00 | 0.00 | 76 | 1004.4 |
| 20260507195128 | 15 | 279 | 9.7 | 16.1 | 0.00 | 0.00 | 0.00 | 76 | 1004.4 |
| 20260507194305 | 15 | 267 | 11.3 | 17.7 | 0.00 | 0.00 | 0.00 | 75 | 1004.3 |
| 20260507193805 | 15 | 295 | 9.7 | 17.7 | 0.00 | 0.00 | 0.00 | 75 | 1004.3 |
| 20260507193303 | 15 | 298 | 9.7 | 16.1 | 0.00 | 0.00 | 0.00 | 75 | 1004.3 |
| 20260507192804 | 15 | 269 | 9.7 | 19.3 | 0.00 | 0.00 | 0.00 | 73 | 1004.3 |
| 20260507192306 | 15 | 278 | 11.3 | 19.3 | 0.00 | 0.00 | 0.00 | 74 | 1004.3 |
| 20260507191803 | 15 | 254 | 9.7 | 16.1 | 0.00 | 0.00 | 0.00 | 74 | 1004.2 |
| 20260507191301 | 15 | 252 | 9.7 | 16.1 | 0.00 | 0.00 | 0.00 | 73 | 1004.2 |
| 20260507190801 | 15 | 280 | 9.7 | 16.1 | 0.00 | 0.00 | 0.00 | 73 | 1004.1 |
| 20260507190429 | 15 | 282 | 9.7 | 17.7 | 0.00 | 0.00 | 0.00 | 73 | 1004.1 |
| 20260507190356 | 15 | 265 | 9.7 | 16.1 | 0.00 | 0.00 | 0.00 | 74 | 1004.1 |
| 20260507185803 | 15 | 282 | 9.7 | 17.7 | 0.00 | 0.00 | 0.00 | 73 | 1004.1 |
| 20260507185737 | 15 | 293 | 9.7 | 17.7 | 0.00 | 0.00 | 0.00 | 73 | 1004.0 |
| 20260507185109 | 15 | 295 | 11.3 | 17.7 | 0.00 | 0.00 | 0.00 | 73 | 1004.1 |
| 20260507184813 | 15 | 295 | 11.3 | 17.7 | 0.00 | 0.00 | 0.00 | 73 | 1004.1 |
| 20260507184645 | 15 | 272 | 11.3 | 17.7 | 0.00 | 0.00 | 0.00 | 72 | 1004.1 |
| 20260507183802 | 15 | 299 | 9.7 | 17.7 | 0.00 | 0.00 | 0.00 | 72 | 1004.0 |
| 20260507183301 | 15 | 269 | 8.0 | 17.7 | 0.00 | 0.00 | 0.00 | 73 | 1004.0 |
| 20260507182802 | 15 | 283 | 11.3 | 22.5 | 0.00 | 0.00 | 0.00 | 73 | 1004.0 |
| 20260507182302 | 15 | 268 | 12.9 | 22.5 | 0.00 | 0.00 | 0.00 | 73 | 1004.1 |
| 20260507181803 | 15 | 267 | 12.9 | 20.9 | 0.00 | 0.00 | 0.00 | 73 | 1004.0 |
| 20260507181300 | 15 | 267 | 12.9 | 20.9 | 0.00 | 0.00 | 0.00 | 73 | 1004.0 |
| 20260507180802 | 15 | 291 | 11.3 | 20.9 | 0.00 | 0.00 | 0.00 | 74 | 1004.0 |
| 20260507180301 | 16 | 270 | 11.3 | 20.9 | 0.00 | 0.00 | 0.00 | 75 | 1004.0 |
| 20260507175804 | 16 | 284 | 9.7 | 17.7 | 0.00 | 0.00 | 0.00 | 75 | 1004.0 |
| 20260507175306 | 16 | 312 | 9.7 | 17.7 | 0.00 | 0.00 | 0.00 | 75 | 1003.9 |
| 20260507174802 | 15 | 307 | 11.3 | 17.7 | 0.00 | 0.00 | 0.00 | 75 | 1003.9 |
| 20260507174558 | 15 | 267 | 12.9 | 17.7 | 0.00 | 0.00 | 0.00 | 74 | 1003.9 |
| 20260507173804 | 16 | 278 | 11.3 | 17.7 | 0.00 | 0.00 | 0.00 | 74 | 1003.9 |
| 20260507173302 | 16 | 300 | 9.7 | 19.3 | 0.00 | 0.00 | 0.00 | 74 | 1003.9 |
| 20260507173244 | 16 | 254 | 11.3 | 17.7 | 0.00 | 0.00 | 0.00 | 73 | 1004.0 |
| 20260507172858 | 16 | 302 | 11.3 | 19.3 | 0.00 | 0.00 | 0.00 | 74 | 1004.0 |
| 20260507171756 | 16 | 313 | 11.3 | 17.7 | 0.00 | 0.00 | 0.00 | 74 | 1003.9 |
| 20260507171246 | 16 | 309 | 12.9 | 20.9 | 0.00 | 0.00 | 0.00 | 74 | 1003.8 |
| 20260507170741 | 16 | 283 | 11.3 | 20.9 | 0.00 | 0.00 | 0.00 | 75 | 1003.8 |
| 20260507170602 | 16 | 273 | 9.7 | 19.3 | 0.00 | 0.00 | 0.00 | 74 | 1003.9 |
| 20260507165732 | 16 | 276 | 12.9 | 19.3 | 0.00 | 0.00 | 0.00 | 75 | 1003.9 |
| 20260507165233 | 16 | 300 | 14.5 | 22.5 | 0.00 | 0.00 | 0.00 | 75 | 1003.9 |
| 20260507164733 | 16 | 288 | 14.5 | 22.5 | 0.00 | 0.00 | 0.00 | 74 | 1003.9 |
| 20260507164231 | 16 | 278 | 14.5 | 22.5 | 0.00 | 0.00 | 0.00 | 73 | 1003.9 |
| 20260507163733 | 16 | 265 | 12.9 | 24.1 | 0.00 | 0.00 | 0.00 | 75 | 1003.8 |
| 20260507163232 | 16 | 279 | 12.9 | 24.1 | 0.00 | 0.00 | 0.00 | 74 | 1003.8 |
| 20260507162731 | 16 | 311 | 14.5 | 22.5 | 0.00 | 0.00 | 0.00 | 75 | 1003.9 |
| 20260507162538 | 16 | 270 | 12.9 | 22.5 | 0.00 | 0.00 | 0.00 | 75 | 1003.8 |
| 20260507161731 | 16 | 280 | 14.5 | 27.4 | 0.00 | 0.00 | 0.00 | 74 | 1003.9 |
| 20260507161233 | 16 | 316 | 14.5 | 27.4 | 0.00 | 0.00 | 0.00 | 76 | 1004.0 |
| 20260507160921 | 17 | 338 | 14.5 | 22.5 | 0.00 | 0.00 | 0.00 | 74 | 1004.0 |
| 20260507160844 | 17 | 268 | 14.5 | 24.1 | 0.00 | 0.00 | 0.00 | 74 | 1004.0 |
| 20260507155731 | 17 | 323 | 16.1 | 27.4 | 0.00 | 0.00 | 0.00 | 74 | 1004.0 |
| 20260507155231 | 17 | 284 | 19.3 | 32.2 | 0.00 | 0.00 | 0.00 | 72 | 1003.9 |
| 20260507155050 | 17 | 285 | 16.1 | 32.2 | 0.00 | 0.00 | 0.00 | 72 | 1003.8 |
| 20260507154231 | 17 | 297 | 14.5 | 22.5 | 0.00 | 0.00 | 0.00 | 74 | 1003.8 |
| 20260507153732 | 17 | 275 | 12.9 | 22.5 | 0.00 | 0.00 | 0.00 | 73 | 1003.8 |
| 20260507153229 | 17 | 294 | 12.9 | 22.5 | 0.00 | 0.00 | 0.00 | 74 | 1003.8 |
| 20260507152729 | 17 | 272 | 14.5 | 22.5 | 0.00 | 0.00 | 0.00 | 73 | 1003.9 |
| 20260507152229 | 17 | 273 | 17.7 | 29.0 | 0.00 | 0.00 | 0.00 | 74 | 1003.9 |
| 20260507151731 | 17 | 271 | 16.1 | 29.0 | 0.00 | 0.00 | 0.00 | 73 | 1004.0 |
| 20260507151544 | 17 | 281 | 16.1 | 25.7 | 0.00 | 0.00 | 0.00 | 73 | 1004.0 |
| 20260507150729 | 17 | 264 | 17.7 | 29.0 | 0.00 | 0.00 | 0.00 | 73 | 1004.1 |
| 20260507150230 | 17 | 279 | 16.1 | 29.0 | 0.00 | 0.00 | 0.00 | 72 | 1004.2 |
| 20260507145729 | 17 | 259 | 14.5 | 27.4 | 0.00 | 0.00 | 0.00 | 71 | 1004.2 |
| 20260507145229 | 17 | 286 | 16.1 | 29.0 | 0.00 | 0.00 | 0.00 | 73 | 1004.1 |
| 20260507144729 | 17 | 296 | 14.5 | 29.0 | 0.00 | 0.00 | 0.00 | 73 | 1004.1 |
| 20260507144229 | 17 | 304 | 12.9 | 22.5 | 0.00 | 0.00 | 0.00 | 73 | 1004.2 |
| 20260507144047 | 17 | 325 | 14.5 | 22.5 | 0.00 | 0.00 | 0.00 | 73 | 1004.3 |
| 20260507143231 | 17 | 309 | 14.5 | 20.9 | 0.00 | 0.00 | 0.00 | 72 | 1004.3 |
| 20260507142729 | 17 | 336 | 12.9 | 19.3 | 0.00 | 0.00 | 0.00 | 72 | 1004.4 |
| 20260507142229 | 17 | 311 | 12.9 | 20.9 | 0.00 | 0.00 | 0.00 | 74 | 1004.4 |
| 20260507141731 | 17 | 304 | 14.5 | 20.9 | 0.00 | 0.00 | 0.00 | 73 | 1004.4 |
| 20260507141230 | 17 | 302 | 14.5 | 20.9 | 0.00 | 0.00 | 0.00 | 72 | 1004.4 |
| 20260507140729 | 17 | 300 | 14.5 | 24.1 | 0.00 | 0.00 | 0.00 | 74 | 1004.5 |
| 20260507140229 | 17 | 313 | 12.9 | 24.1 | 0.00 | 0.00 | 0.00 | 72 | 1004.5 |
| 20260507135729 | 17 | 331 | 14.5 | 25.7 | 0.00 | 0.00 | 0.00 | 74 | 1004.5 |
| 20260507135229 | 17 | 323 | 14.5 | 25.7 | 0.00 | 0.00 | 0.00 | 75 | 1004.5 |
| 20260507134729 | 17 | 285 | 14.5 | 24.1 | 0.00 | 0.00 | 0.00 | 73 | 1004.5 |
| 20260507134229 | 17 | 317 | 14.5 | 24.1 | 0.00 | 0.00 | 0.00 | 74 | 1004.6 |
| 20260507133739 | 17 | 338 | 14.5 | 22.5 | 0.00 | 0.00 | 0.00 | 75 | 1004.6 |
| 20260507133230 | 17 | 322 | 14.5 | 22.5 | 0.00 | 0.00 | 0.00 | 74 | 1004.6 |
| 20260507133046 | 17 | 307 | 14.5 | 24.1 | 0.00 | 0.00 | 0.00 | 74 | 1004.6 |